createdAt,value
2022-10-19T00:00:33.187Z,10.10
2022-10-19T00:02:59.723Z,9.27
2022-10-19T00:05:26.490Z,11.63
2022-10-19T00:07:53.701Z,13.60
2022-10-19T00:10:20.407Z,13.20
2022-10-19T00:15:13.742Z,8.27
2022-10-19T00:17:40.253Z,7.97
2022-10-19T00:20:06.988Z,12.70
2022-10-19T00:22:33.661Z,10.17
2022-10-19T00:25:00.274Z,9.90
2022-10-19T00:27:26.759Z,10.30
2022-10-19T00:29:53.234Z,8.10
2022-10-19T00:32:19.710Z,13.30
2022-10-19T00:34:46.162Z,8.60
2022-10-19T00:37:12.629Z,10.97
2022-10-19T00:39:39.307Z,8.73
2022-10-19T00:42:05.822Z,10.13
2022-10-19T00:44:32.169Z,9.50
2022-10-19T00:47:01.872Z,10.93
2022-10-19T00:49:32.195Z,14.13
2022-10-19T00:52:04.117Z,8.07
2022-10-19T00:54:32.718Z,11.87
2022-10-19T00:56:59.922Z,8.77
2022-10-19T00:59:27.242Z,7.60
2022-10-19T01:01:54.469Z,9.60
2022-10-19T01:04:22.203Z,8.20
2022-10-19T01:06:48.756Z,9.13
2022-10-19T01:09:15.337Z,12.30
2022-10-19T01:11:58.220Z,7.87
2022-10-19T01:14:43.582Z,7.43
2022-10-19T01:17:43.914Z,10.80
2022-10-19T01:20:19.368Z,12.47
2022-10-19T01:23:16.595Z,9.90
2022-10-19T01:26:01.212Z,7.80
2022-10-19T01:28:54.568Z,11.03
2022-10-19T01:31:30.424Z,14.32
2022-10-19T01:34:10.141Z,12.60
2022-10-19T01:36:57.865Z,8.40
2022-10-19T01:39:54.986Z,11.00
2022-10-19T01:42:46.705Z,9.77
2022-10-19T01:45:19.717Z,11.35
2022-10-19T01:47:49.778Z,11.32
2022-10-19T01:52:43.875Z,18.67
2022-10-19T01:55:13.187Z,9.75
2022-10-19T01:57:43.042Z,12.27
2022-10-19T02:00:11.133Z,17.20
2022-10-19T02:02:39.374Z,7.18
2022-10-19T02:05:07.778Z,8.43
2022-10-19T02:07:34.992Z,9.35
2022-10-19T02:10:01.623Z,8.60
2022-10-19T02:12:28.965Z,10.65
2022-10-19T02:14:58.576Z,6.97
2022-10-19T02:17:28.794Z,11.25
2022-10-19T02:19:59.134Z,9.63
2022-10-19T02:22:25.674Z,11.45
2022-10-19T02:24:52.139Z,9.95
2022-10-19T02:27:19.277Z,6.80
2022-10-19T02:29:46.099Z,9.50
2022-10-19T02:32:12.716Z,12.00
2022-10-19T02:34:39.575Z,8.20
2022-10-19T02:37:06.425Z,12.75
2022-10-19T02:39:33.275Z,12.85
2022-10-19T02:42:08.823Z,10.00
2022-10-19T02:44:48.203Z,12.38
2022-10-19T02:47:21.078Z,12.65
2022-10-19T02:49:47.818Z,7.25
2022-10-19T02:52:14.738Z,8.90
2022-10-19T02:54:43.696Z,12.07
2022-10-19T02:57:19.325Z,8.27
2022-10-19T02:59:46.122Z,15.00
2022-10-19T03:02:13.526Z,11.07
2022-10-19T03:04:40.275Z,12.63
2022-10-19T03:07:06.720Z,13.05
2022-10-19T03:09:33.147Z,10.93
2022-10-19T03:11:59.573Z,9.60
2022-10-19T03:14:26.094Z,9.82
2022-10-19T03:16:52.523Z,6.60
2022-10-19T03:19:19.088Z,9.27
2022-10-19T03:21:45.948Z,11.15
2022-10-19T03:24:12.718Z,9.52
2022-10-19T03:26:39.221Z,12.73
2022-10-19T03:29:05.731Z,12.32
2022-10-19T03:31:32.366Z,10.60
2022-10-19T03:33:58.885Z,12.68
2022-10-19T03:36:26.420Z,8.57
2022-10-19T03:38:57.839Z,11.20
2022-10-19T03:41:26.817Z,14.63
2022-10-19T03:43:53.385Z,9.90
2022-10-19T03:46:20.999Z,9.75
2022-10-19T03:48:48.137Z,9.80
2022-10-19T03:51:20.050Z,11.68
2022-10-19T03:53:46.896Z,11.30
2022-10-19T03:56:18.809Z,11.52
2022-10-19T03:58:47.072Z,15.80
2022-10-19T04:01:21.803Z,15.75
2022-10-19T04:04:01.118Z,12.57
2022-10-19T04:06:31.624Z,9.93
2022-10-19T04:08:58.736Z,11.05
2022-10-19T04:11:27.607Z,6.97
2022-10-19T04:14:26.736Z,9.90
2022-10-19T04:17:03.598Z,7.95
2022-10-19T04:19:30.564Z,6.55
2022-10-19T04:21:57.518Z,12.25
2022-10-19T04:24:23.968Z,13.35
2022-10-19T04:26:52.839Z,8.40
2022-10-19T04:29:22.835Z,11.10
2022-10-19T04:31:53.529Z,11.35
2022-10-19T04:34:19.990Z,8.88
2022-10-19T04:36:46.454Z,7.95
2022-10-19T04:39:24.669Z,13.35
2022-10-19T04:41:51.136Z,9.82
2022-10-19T04:44:17.700Z,9.45
2022-10-19T04:46:44.185Z,16.55
2022-10-19T04:49:10.697Z,13.48
2022-10-19T04:51:37.150Z,14.25
2022-10-19T04:54:07.043Z,11.00
2022-10-19T04:56:34.176Z,10.18
2022-10-19T04:59:03.583Z,8.50
2022-10-19T05:01:31.627Z,16.00
2022-10-19T05:04:00.732Z,9.73
2022-10-19T05:06:27.764Z,6.07
2022-10-19T05:08:55.036Z,9.18
2022-10-19T05:11:22.332Z,9.00
2022-10-19T05:13:49.171Z,8.18
2022-10-19T05:16:18.125Z,9.65
2022-10-19T05:18:49.147Z,18.98
2022-10-19T05:21:16.527Z,10.07
2022-10-19T05:23:43.344Z,14.75
2022-10-19T05:26:15.635Z,9.18
2022-10-19T05:28:42.627Z,11.57
2022-10-19T05:31:11.724Z,9.40
2022-10-19T05:33:39.441Z,9.32
2022-10-19T05:36:13.486Z,14.80
2022-10-19T05:38:40.069Z,8.07
2022-10-19T05:41:06.855Z,14.07
2022-10-19T05:43:33.486Z,12.10
2022-10-19T05:46:08.612Z,12.48
2022-10-19T05:48:37.062Z,14.35
2022-10-19T05:51:05.451Z,17.15
2022-10-19T05:53:33.685Z,14.10
2022-10-19T05:56:00.232Z,13.85
2022-10-19T05:58:26.930Z,12.02
2022-10-19T06:00:58.358Z,11.98
2022-10-19T06:03:25.588Z,10.32
2022-10-19T06:05:53.009Z,9.82
2022-10-19T06:08:20.701Z,13.40
2022-10-19T06:10:47.904Z,16.52
2022-10-19T06:13:15.720Z,12.65
2022-10-19T06:15:42.289Z,19.63
2022-10-19T06:18:10.576Z,11.45
2022-10-19T06:20:38.890Z,18.20
2022-10-19T06:23:06.038Z,11.55
2022-10-19T06:25:33.096Z,13.18
2022-10-19T06:28:00.440Z,10.27
2022-10-19T06:30:27.205Z,10.02
2022-10-19T06:32:54.011Z,12.85
2022-10-19T06:35:20.807Z,13.20
2022-10-19T06:37:51.298Z,14.65
2022-10-19T06:40:18.019Z,16.38
2022-10-19T06:42:44.557Z,13.35
2022-10-19T06:45:11.138Z,17.42
2022-10-19T06:47:38.104Z,12.77
2022-10-19T06:50:06.253Z,16.02
2022-10-19T06:52:33.840Z,8.23
2022-10-19T06:55:01.295Z,10.23
2022-10-19T06:57:28.433Z,10.30
2022-10-19T06:59:55.187Z,11.57
2022-10-19T07:02:21.778Z,12.45
2022-10-19T07:04:48.311Z,14.93
2022-10-19T07:07:14.930Z,15.80
2022-10-19T07:09:41.549Z,15.25
2022-10-19T07:12:08.432Z,10.57
2022-10-19T07:14:35.388Z,9.57
2022-10-19T07:17:01.878Z,9.98
2022-10-19T07:19:28.408Z,10.80
2022-10-19T07:21:54.851Z,11.82
2022-10-19T07:24:21.656Z,13.63
2022-10-19T07:26:48.282Z,10.70
2022-10-19T07:29:14.800Z,8.07
2022-10-19T07:31:41.980Z,13.13
2022-10-19T07:34:12.049Z,11.47
2022-10-19T07:36:38.644Z,16.45
2022-10-19T07:39:06.714Z,12.30
2022-10-19T07:41:33.857Z,10.37
2022-10-19T07:44:01.280Z,15.80
2022-10-19T07:46:29.146Z,18.27
2022-10-19T07:48:55.832Z,14.33
2022-10-19T07:51:23.176Z,12.77
2022-10-19T07:53:50.433Z,14.30
2022-10-19T07:56:22.497Z,11.50
2022-10-19T07:58:53.560Z,14.40
2022-10-19T08:01:24.027Z,11.50
2022-10-19T08:06:39.242Z,15.17
2022-10-19T08:09:06.810Z,9.90
2022-10-19T08:11:35.496Z,14.10
2022-10-19T08:14:02.476Z,11.53
2022-10-19T08:16:30.424Z,13.63
2022-10-19T08:19:00.458Z,15.20
2022-10-19T08:23:53.819Z,16.23
2022-10-19T08:26:20.875Z,14.50
2022-10-19T08:28:47.622Z,11.03
2022-10-19T08:31:20.066Z,12.67
2022-10-19T08:33:46.970Z,19.87
2022-10-19T08:36:13.704Z,17.20
2022-10-19T08:38:40.884Z,13.17
2022-10-19T08:41:46.196Z,13.00
2022-10-19T08:44:15.413Z,17.47
2022-10-19T08:47:08.288Z,17.98
2022-10-19T08:49:35.629Z,13.17
2022-10-19T08:52:08.026Z,12.23
2022-10-19T08:54:49.283Z,14.03
2022-10-19T08:57:28.364Z,17.27
2022-10-19T09:00:17.308Z,18.80
2022-10-19T09:03:03.417Z,13.50
2022-10-19T09:05:45.437Z,13.43
2022-10-19T09:08:17.473Z,18.67
2022-10-19T09:10:46.999Z,16.63
2022-10-19T09:13:23.252Z,17.55
2022-10-19T09:15:51.513Z,14.13
2022-10-19T09:18:29.749Z,17.90
2022-10-19T09:21:17.145Z,15.17
2022-10-19T09:23:47.222Z,14.97
2022-10-19T09:26:19.016Z,16.23
2022-10-19T09:28:54.858Z,17.53
2022-10-19T09:31:40.693Z,16.20
2022-10-19T09:34:22.071Z,15.20
2022-10-19T09:36:56.515Z,16.10
2022-10-19T09:39:27.036Z,12.17
2022-10-19T09:41:58.967Z,19.90
2022-10-19T09:44:27.058Z,13.23
2022-10-19T09:47:10.213Z,14.20
2022-10-19T09:49:45.050Z,17.07
2022-10-19T09:52:32.987Z,13.37
2022-10-19T09:55:06.469Z,11.23
2022-10-19T09:57:34.053Z,14.83
2022-10-19T10:00:00.820Z,15.10
2022-10-19T10:02:32.203Z,12.60
2022-10-19T10:05:14.673Z,14.80
2022-10-19T10:07:41.208Z,16.20
2022-10-19T10:10:19.927Z,14.53
2022-10-19T10:12:47.187Z,9.97
2022-10-19T10:15:19.932Z,16.63
2022-10-19T10:17:47.839Z,16.57
2022-10-19T10:20:25.457Z,12.77
2022-10-19T10:22:58.027Z,14.43
2022-10-19T10:25:27.433Z,18.53
2022-10-19T10:28:03.797Z,15.27
2022-10-19T10:30:35.439Z,16.13
2022-10-19T10:33:09.440Z,14.73
2022-10-19T10:35:47.223Z,17.50
2022-10-19T10:38:18.420Z,15.57
2022-10-19T10:41:00.672Z,11.33
2022-10-19T10:43:31.585Z,13.60
2022-10-19T10:46:07.484Z,15.47
2022-10-19T10:48:44.576Z,18.13
2022-10-19T10:51:43.444Z,14.93
2022-10-19T10:54:23.098Z,15.53
2022-10-19T10:57:07.933Z,19.75
2022-10-19T11:00:01.751Z,13.57
2022-10-19T11:02:36.838Z,18.23
2022-10-19T11:05:12.002Z,12.53
2022-10-19T11:07:43.924Z,21.27
2022-10-19T11:10:20.441Z,13.53
2022-10-19T11:12:52.062Z,15.80
2022-10-19T11:15:59.580Z,18.73
2022-10-19T11:18:30.067Z,12.13
2022-10-19T11:21:18.515Z,16.27
2022-10-19T11:23:47.729Z,17.47
2022-10-19T11:26:26.474Z,17.25
2022-10-19T11:29:02.681Z,21.83
2022-10-19T11:31:43.902Z,15.33
2022-10-19T11:34:29.248Z,20.33
2022-10-19T11:37:26.653Z,16.97
2022-10-19T11:40:08.864Z,19.20
2022-10-19T11:45:25.650Z,16.30
2022-10-19T11:48:15.024Z,16.73
2022-10-19T11:51:04.136Z,14.07
2022-10-19T11:54:21.433Z,20.70
2022-10-19T11:57:09.382Z,14.53
2022-10-19T12:02:26.110Z,13.75
2022-10-19T12:05:00.421Z,14.97
2022-10-19T12:07:48.611Z,11.27
2022-10-19T12:10:32.525Z,18.17
2022-10-19T12:13:02.364Z,16.17
2022-10-19T12:17:59.558Z,18.10
2022-10-19T12:20:31.255Z,14.43
2022-10-19T12:22:58.905Z,14.77
2022-10-19T12:25:26.446Z,10.97
2022-10-19T12:27:53.444Z,13.37
2022-10-19T12:30:22.168Z,13.70
2022-10-19T12:33:15.457Z,13.93
2022-10-19T12:36:32.758Z,14.73
2022-10-19T12:39:01.624Z,14.80
2022-10-19T12:42:05.416Z,15.38
2022-10-19T12:44:45.195Z,12.73
2022-10-19T12:49:46.261Z,12.60
2022-10-19T12:52:14.420Z,16.37
2022-10-19T12:54:42.635Z,16.17
2022-10-19T12:57:29.059Z,12.50
2022-10-19T13:00:06.308Z,12.17
2022-10-19T13:02:35.485Z,12.63
2022-10-19T13:05:02.549Z,9.57
2022-10-19T13:07:32.809Z,10.97
2022-10-19T13:10:05.777Z,11.87
2022-10-19T13:12:44.002Z,15.47
2022-10-19T13:15:33.494Z,10.53
2022-10-19T13:18:01.370Z,11.25
2022-10-19T13:20:27.766Z,14.83
2022-10-19T13:23:00.123Z,17.87
2022-10-19T13:25:27.329Z,15.87
2022-10-19T13:27:54.836Z,14.97
2022-10-19T13:30:36.455Z,16.47
2022-10-19T13:33:28.004Z,14.77
2022-10-19T13:36:00.582Z,18.63
2022-10-19T13:38:32.792Z,16.27
2022-10-19T13:41:12.096Z,15.60
2022-10-19T13:43:41.638Z,13.65
2022-10-19T13:46:12.480Z,17.52
2022-10-19T13:49:16.658Z,12.37
2022-10-19T13:52:13.910Z,12.90
2022-10-19T13:54:55.350Z,13.13
2022-10-19T13:57:44.596Z,15.93
2022-10-19T14:00:15.647Z,17.35
2022-10-19T14:02:50.966Z,16.00
2022-10-19T14:05:39.091Z,12.27
2022-10-19T14:08:17.529Z,13.53
2022-10-19T14:11:00.729Z,14.63
2022-10-19T14:13:28.485Z,16.63
2022-10-19T14:15:57.614Z,14.43
2022-10-19T14:18:30.982Z,13.40
2022-10-19T14:20:58.397Z,14.77
2022-10-19T14:23:30.084Z,16.40
2022-10-19T14:26:20.514Z,15.03
2022-10-19T14:28:51.884Z,17.27
2022-10-19T14:31:22.167Z,12.93
2022-10-19T14:33:51.538Z,14.77
2022-10-19T14:36:21.593Z,13.00
2022-10-19T14:38:54.954Z,15.20
2022-10-19T14:41:27.357Z,16.63
2022-10-19T14:43:55.256Z,20.27
2022-10-19T14:46:28.850Z,20.13
2022-10-19T14:49:00.092Z,19.47
2022-10-19T14:51:45.593Z,18.77
2022-10-19T14:54:28.721Z,21.50
2022-10-19T14:56:57.088Z,18.87
2022-10-19T14:59:32.328Z,22.13
2022-10-19T15:02:01.058Z,20.93
2022-10-19T15:04:37.729Z,18.33
2022-10-19T15:07:15.325Z,22.97
2022-10-19T15:09:48.663Z,20.73
2022-10-19T15:12:18.422Z,23.30
2022-10-19T15:14:45.999Z,24.42
2022-10-19T15:17:21.654Z,21.60
2022-10-19T15:19:48.428Z,23.63
2022-10-19T15:22:21.382Z,26.40
2022-10-19T15:25:00.696Z,25.27
2022-10-19T15:27:41.226Z,24.38
2022-10-19T15:30:22.858Z,28.30
2022-10-19T15:32:52.449Z,28.40
2022-10-19T15:35:34.965Z,26.60
2022-10-19T15:38:07.537Z,25.80
2022-10-19T15:40:38.576Z,26.23
2022-10-19T15:43:50.737Z,30.43
2022-10-19T15:46:27.311Z,31.93
2022-10-19T15:49:24.134Z,27.83
2022-10-19T15:51:51.027Z,26.57
2022-10-19T15:54:18.551Z,27.23
2022-10-19T15:56:47.159Z,28.90
2022-10-19T15:59:16.434Z,28.33
2022-10-19T16:01:44.096Z,27.27
2022-10-19T16:04:10.876Z,25.27
2022-10-19T16:06:40.257Z,25.30
2022-10-19T16:09:08.703Z,36.03
2022-10-19T16:11:35.340Z,28.83
2022-10-19T16:14:02.513Z,22.67
2022-10-19T16:16:31.803Z,28.97
2022-10-19T16:18:59.097Z,29.23
2022-10-19T16:21:33.344Z,29.90
2022-10-19T16:24:00.247Z,31.67
2022-10-19T16:26:27.023Z,31.37
2022-10-19T16:28:55.397Z,35.67
2022-10-19T16:31:23.041Z,35.33
2022-10-19T16:33:49.603Z,36.03
2022-10-19T16:36:16.356Z,36.93
2022-10-19T16:38:42.865Z,39.00
2022-10-19T16:41:10.644Z,39.80
2022-10-19T16:43:37.989Z,41.07
2022-10-19T16:46:06.010Z,46.63
2022-10-19T16:48:33.230Z,40.17
2022-10-19T16:51:24.344Z,36.40
2022-10-19T16:53:53.730Z,38.10
2022-10-19T16:56:20.594Z,47.47
2022-10-19T16:58:47.234Z,50.40
2022-10-19T17:01:16.584Z,53.70
2022-10-19T17:03:44.127Z,47.45
2022-10-19T17:06:10.750Z,44.30
2022-10-19T17:09:14.317Z,38.93
2022-10-19T17:11:28.035Z,49.87
2022-10-19T17:13:57.521Z,56.42
2022-10-19T17:16:25.954Z,46.40
2022-10-19T17:18:55.423Z,48.87
2022-10-19T17:21:27.130Z,56.63
2022-10-19T17:23:55.856Z,55.63
2022-10-19T17:26:30.981Z,57.90
2022-10-19T17:28:58.474Z,56.40
2022-10-19T17:31:25.537Z,62.20
2022-10-19T17:33:52.586Z,55.40
2022-10-19T17:36:24.396Z,57.90
2022-10-19T17:38:53.454Z,46.50
2022-10-19T17:41:20.124Z,41.85
2022-10-19T17:43:48.106Z,56.77
2022-10-19T17:46:16.647Z,43.70
2022-10-19T17:48:44.210Z,56.10
2022-10-19T17:51:19.442Z,42.37
2022-10-19T17:53:49.762Z,40.07
2022-10-19T17:56:18.976Z,42.87
2022-10-19T17:58:45.600Z,40.10
2022-10-19T18:01:12.441Z,31.80
2022-10-19T18:03:39.741Z,31.37
2022-10-19T18:06:10.710Z,31.53
2022-10-19T18:08:40.036Z,24.07
2022-10-19T18:11:09.366Z,29.60
2022-10-19T18:16:16.131Z,23.20
2022-10-19T18:18:44.572Z,22.43
2022-10-19T18:21:12.985Z,22.30
2022-10-19T18:23:40.198Z,30.60
2022-10-19T18:26:15.276Z,25.70
2022-10-19T18:28:42.669Z,24.63
2022-10-19T18:31:12.126Z,24.50
2022-10-19T18:33:39.041Z,27.13
2022-10-19T18:36:07.664Z,28.27
2022-10-19T18:38:34.988Z,25.10
2022-10-19T18:41:09.663Z,30.03
2022-10-19T18:43:36.542Z,24.97
2022-10-19T18:46:03.227Z,27.33
2022-10-19T18:48:30.547Z,26.77
2022-10-19T18:50:57.754Z,29.40
2022-10-19T18:53:24.499Z,21.23
2022-10-19T18:56:01.540Z,31.30
2022-10-19T18:58:30.775Z,29.40
2022-10-19T19:01:05.819Z,30.60
2022-10-19T19:03:33.111Z,28.37
2022-10-19T19:06:07.538Z,28.03
2022-10-19T19:08:34.135Z,23.23
2022-10-19T19:11:15.883Z,21.90
2022-10-19T19:13:50.653Z,22.20
2022-10-19T19:16:17.545Z,17.43
2022-10-19T19:18:44.389Z,27.97
2022-10-19T19:21:19.509Z,26.27
2022-10-19T19:23:49.457Z,21.87
2022-10-19T19:26:16.161Z,22.73
2022-10-19T19:28:44.335Z,27.53
2022-10-19T19:31:13.271Z,24.97
2022-10-19T19:33:40.188Z,26.33
2022-10-19T19:36:15.053Z,28.83
2022-10-19T19:38:43.850Z,25.53
2022-10-19T19:41:16.342Z,23.00
2022-10-19T19:43:43.872Z,28.93
2022-10-19T19:46:18.789Z,22.27
2022-10-19T19:48:47.458Z,19.27
2022-10-19T19:51:19.560Z,24.87
2022-10-19T19:53:47.277Z,20.80
2022-10-19T19:56:15.735Z,23.63
2022-10-19T19:58:43.034Z,20.87
2022-10-19T20:01:12.349Z,24.13
2022-10-19T20:03:40.555Z,24.03
2022-10-19T20:06:09.279Z,20.93
2022-10-19T20:08:38.870Z,25.87
2022-10-19T20:11:07.744Z,24.52
2022-10-19T20:13:34.770Z,24.10
2022-10-19T20:16:10.488Z,21.50
2022-10-19T20:18:37.268Z,23.50
2022-10-19T20:21:04.994Z,19.60
2022-10-19T20:23:31.674Z,35.77
2022-10-19T20:25:58.369Z,33.13
2022-10-19T20:28:25.642Z,28.13
2022-10-19T20:31:06.383Z,24.33
2022-10-19T20:33:34.238Z,27.83
2022-10-19T20:36:09.111Z,32.77
2022-10-19T20:38:37.008Z,30.57
2022-10-19T20:41:07.776Z,32.47
2022-10-19T20:43:35.957Z,31.70
2022-10-19T20:46:06.612Z,30.20
2022-10-19T20:48:33.310Z,26.97
2022-10-19T20:51:21.173Z,29.30
2022-10-19T20:53:50.549Z,27.80
2022-10-19T20:56:19.751Z,29.30
2022-10-19T20:58:46.431Z,25.60
2022-10-19T21:01:16.272Z,22.27
2022-10-19T21:03:47.894Z,25.92
2022-10-19T21:06:14.637Z,25.07
2022-10-19T21:08:42.146Z,28.30
2022-10-19T21:11:23.088Z,30.07
2022-10-19T21:13:53.780Z,29.97
2022-10-19T21:16:22.005Z,23.90
2022-10-19T21:18:49.506Z,26.03
2022-10-19T21:21:24.820Z,28.43
2022-10-19T21:23:55.031Z,22.20
2022-10-19T21:26:24.254Z,22.43
2022-10-19T21:28:51.131Z,24.83
2022-10-19T21:31:17.954Z,28.23
2022-10-19T21:33:44.668Z,28.23
2022-10-19T21:36:11.985Z,30.53
2022-10-19T21:38:38.822Z,27.57
2022-10-19T21:41:07.460Z,31.17
2022-10-19T21:43:34.555Z,34.13
2022-10-19T21:46:02.810Z,34.07
2022-10-19T21:48:29.780Z,36.97
2022-10-19T21:50:56.216Z,36.97
2022-10-19T21:53:23.286Z,35.40
2022-10-19T21:55:51.164Z,33.83
2022-10-19T21:58:17.764Z,33.67
2022-10-19T22:00:44.210Z,39.63
2022-10-19T22:03:11.491Z,38.23
2022-10-19T22:05:38.245Z,36.07
2022-10-19T22:08:05.074Z,38.90
2022-10-19T22:10:31.608Z,37.83
2022-10-19T22:12:58.259Z,38.60
2022-10-19T22:15:24.923Z,34.77
2022-10-19T22:17:51.592Z,38.27
2022-10-19T22:20:18.141Z,47.90
2022-10-19T22:22:44.596Z,37.50
2022-10-19T22:25:11.040Z,45.83
2022-10-19T22:27:37.664Z,47.17
2022-10-19T22:30:04.822Z,48.80
2022-10-19T22:32:31.319Z,45.93
2022-10-19T22:34:57.851Z,54.50
2022-10-19T22:37:24.458Z,47.83
2022-10-19T22:39:50.954Z,46.63
2022-10-19T22:42:17.401Z,42.23
2022-10-19T22:44:43.843Z,37.03
2022-10-19T22:47:10.425Z,37.20
2022-10-19T22:49:36.876Z,38.00
2022-10-19T22:52:03.479Z,32.97
2022-10-19T22:54:29.962Z,32.67
2022-10-19T22:56:56.905Z,33.30
2022-10-19T22:59:23.652Z,31.13
2022-10-19T23:01:50.191Z,30.17
2022-10-19T23:04:19.800Z,30.43
2022-10-19T23:06:46.246Z,32.67
2022-10-19T23:09:12.711Z,28.57
2022-10-19T23:11:39.176Z,27.17
2022-10-19T23:14:06.449Z,24.90
2022-10-19T23:16:33.030Z,24.23
2022-10-19T23:18:59.465Z,28.70
2022-10-19T23:21:25.989Z,29.50
2022-10-19T23:23:52.475Z,29.27
2022-10-19T23:26:20.125Z,28.03
2022-10-19T23:28:48.573Z,31.17
2022-10-19T23:31:17.541Z,31.00
2022-10-19T23:33:44.368Z,27.83
2022-10-19T23:36:22.509Z,27.80
2022-10-19T23:38:50.173Z,28.70
2022-10-19T23:41:17.521Z,31.17
2022-10-19T23:43:44.052Z,33.83
2022-10-19T23:46:10.666Z,32.83
2022-10-19T23:48:37.516Z,30.90
2022-10-19T23:51:13.017Z,33.87
2022-10-19T23:53:41.672Z,30.03
2022-10-19T23:56:12.928Z,35.57
2022-10-19T23:58:39.426Z,36.03
